Time;durP1;ratioP1;P1;durP2;ratioP2;P2;SDS_P1;SDS_P2;PMS_P1;PMS_P2;Temp;Humidity;BMP_temperature;BMP_pressure;BME280_temperature;BME280_humidity;BME280_pressure;Samples;Min_cycle;Max_cycle;Signal;HPM_P1;HPM_P2
2022/09/15 00:01:39;;;;;;;;;;;;;;;13.71;100.00;100725.94;5094375;28;20340;-35
2022/09/15 00:04:04;;;;;;;;;;;;;;;13.70;100.00;100725.13;5094128;28;19957;-35
2022/09/15 00:06:30;;;;;;;;;;;;;;;13.70;100.00;100722.41;5094391;28;19912;-34
2022/09/15 00:08:55;;;;;;;;;;;;;;;13.69;100.00;100725.38;5093995;28;19923;-34
2022/09/15 00:11:21;;;;;;;;;;;;;;;13.69;100.00;100719.94;5093472;28;20367;-35
2022/09/15 00:13:47;;;;;;;;;;;;;;;13.69;100.00;100720.75;5093897;28;19912;-35
2022/09/15 00:16:13;;;;;;;;;;;;;;;13.73;100.00;100718.38;5093407;28;19911;-35
2022/09/15 00:18:39;;;;;;;;;;;;;;;13.77;100.00;100720.31;5094210;28;19999;-35
2022/09/15 00:21:05;;;;;;;;;;;;;;;13.78;100.00;100710.28;5093612;28;20018;-35
2022/09/15 00:23:31;;;;;;;;;;;;;;;13.80;100.00;100708.09;5093163;28;20415;-35
2022/09/15 00:25:56;;;;;;;;;;;;;;;13.80;100.00;100708.09;5093754;28;20003;-35
2022/09/15 00:28:21;;;;;;;;;;;;;;;13.82;100.00;100704.06;5094340;28;19912;-35
2022/09/15 00:30:48;;;;;;;;;;;;;;;13.83;100.00;100708.41;5093537;28;19912;-35
2022/09/15 00:33:14;;;;;;;;;;;;;;;13.85;100.00;100710.88;5093230;28;19919;-35
2022/09/15 00:35:40;;;;;;;;;;;;;;;13.87;100.00;100697.88;5093946;28;19916;-35
2022/09/15 00:38:06;;;;;;;;;;;;;;;13.87;100.00;100695.16;5094104;28;20271;-35
2022/09/15 00:40:32;;;;;;;;;;;;;;;13.88;100.00;100694.88;5093380;28;19912;-35
2022/09/15 00:42:57;;;;;;;;;;;;;;;13.89;100.00;100701.13;5093744;28;19994;-35
2022/09/15 00:45:22;;;;;;;;;;;;;;;13.91;100.00;100699.00;5093881;28;19934;-34
2022/09/15 00:47:47;;;;;;;;;;;;;;;13.91;100.00;100701.72;5093142;28;20298;-35
2022/09/15 00:50:15;;;;;;;;;;;;;;;13.92;100.00;100700.63;5095053;28;20355;-35
2022/09/15 00:52:46;;;;;;;;;;;;;;;13.93;100.00;100702.28;5097745;28;20401;-35
2022/09/15 00:55:15;;;;;;;;;;;;;;;13.95;100.00;100708.25;5097201;28;20060;-35
2022/09/15 00:57:42;;;;;;;;;;;;;;;13.97;100.00;100714.28;5097529;28;20381;-35
2022/09/15 01:00:11;;;;;;;;;;;;;;;13.98;100.00;100720.53;5097355;28;19959;-35
2022/09/15 01:02:37;;;;;;;;;;;;;;;13.98;100.00;100715.91;5096949;28;19955;-35
2022/09/15 01:05:06;;;;;;;;;;;;;;;13.99;100.00;100724.88;5097309;28;19912;-35
2022/09/15 01:07:34;;;;;;;;;;;;;;;13.99;100.00;100722.97;5097693;28;20355;-35
2022/09/15 01:10:03;;;;;;;;;;;;;;;13.99;100.00;100722.16;5097709;28;20010;-35
2022/09/15 01:12:28;;;;;;;;;;;;;;;14.01;100.00;100717.31;5096853;28;20372;-35
2022/09/15 01:14:53;;;;;;;;;;;;;;;14.02;100.00;100721.66;5097000;28;19912;-35
2022/09/15 01:17:19;;;;;;;;;;;;;;;14.03;100.00;100718.69;5097493;28;19977;-35
2022/09/15 01:19:54;;;;;;;;;;;;;;;14.03;100.00;100721.41;5096972;28;19912;-35
2022/09/15 01:22:28;;;;;;;;;;;;;;;14.04;100.00;100714.06;5096723;28;20513;-35
2022/09/15 01:25:28;;;;;;;;;;;;;;;14.03;100.00;100710.53;5097100;28;19912;-35
2022/09/15 01:27:59;;;;;;;;;;;;;;;14.03;100.00;100707.81;5074340;28;20288;-35
2022/09/15 01:30:25;;;;;;;;;;;;;;;14.03;100.00;100702.38;5074585;28;20014;-34
2022/09/15 01:33:07;;;;;;;;;;;;;;;14.05;100.00;100705.63;5074296;28;19995;-35
2022/09/15 01:36:10;;;;;;;;;;;;;;;14.07;100.00;100702.69;5073890;28;20023;-35
2022/09/15 01:38:45;;;;;;;;;;;;;;;14.06;100.00;100701.03;5054198;28;20304;-35
2022/09/15 01:41:16;;;;;;;;;;;;;;;14.04;100.00;100704.00;5053896;28;19944;-35
2022/09/15 01:43:52;;;;;;;;;;;;;;;14.03;100.00;100701.56;5054480;28;20387;-35
2022/09/15 01:46:19;;;;;;;;;;;;;;;14.02;100.00;100705.34;5054119;28;19975;-35
2022/09/15 01:48:46;;;;;;;;;;;;;;;14.01;100.00;100707.25;5053865;28;19913;-35
2022/09/15 01:51:12;;;;;;;;;;;;;;;13.99;100.00;100705.84;5054395;28;19913;-36
2022/09/15 01:53:38;;;;;;;;;;;;;;;13.97;100.00;100708.84;5053652;28;20403;-35
2022/09/15 01:56:08;;;;;;;;;;;;;;;13.94;100.00;100709.34;5053688;28;19913;-35
2022/09/15 01:58:33;;;;;;;;;;;;;;;13.91;100.00;100705.25;5054315;28;19917;-35
2022/09/15 02:01:07;;;;;;;;;;;;;;;13.88;100.00;100704.94;5056251;28;20006;-35
2022/09/15 02:03:54;;;;;;;;;;;;;;;13.84;100.00;100701.09;5074018;28;20360;-35
2022/09/15 02:06:36;;;;;;;;;;;;;;;13.80;100.00;100705.38;5060862;28;19916;-35
2022/09/15 02:09:05;;;;;;;;;;;;;;;13.75;100.00;100695.28;5081793;28;19984;-35
2022/09/15 02:11:31;;;;;;;;;;;;;;;13.74;100.00;100698.25;5096210;28;20072;-35
2022/09/15 02:14:02;;;;;;;;;;;;;;;13.73;100.00;100704.78;5096574;28;20268;-35
2022/09/15 02:16:30;;;;;;;;;;;;;;;13.71;100.00;100707.72;5095575;28;19943;-35
2022/09/15 02:19:02;;;;;;;;;;;;;;;13.62;100.00;100685.66;5095703;28;20368;-35
2022/09/15 02:21:33;;;;;;;;;;;;;;;13.67;100.00;100709.34;5095528;28;20421;-35
2022/09/15 02:24:03;;;;;;;;;;;;;;;13.64;100.00;100709.84;5096292;28;19912;-35
2022/09/15 02:26:30;;;;;;;;;;;;;;;13.61;100.00;100711.16;5095486;28;19912;-35
2022/09/15 02:28:56;;;;;;;;;;;;;;;13.57;100.00;100710.03;5095401;28;20298;-35
2022/09/15 02:31:23;;;;;;;;;;;;;;;13.55;100.00;100716.78;5095377;28;20455;-35
2022/09/15 02:33:50;;;;;;;;;;;;;;;13.53;100.00;100711.63;5095898;28;20021;-35
2022/09/15 02:36:18;;;;;;;;;;;;;;;13.48;100.00;100708.84;5095447;28;19912;-35
2022/09/15 02:38:45;;;;;;;;;;;;;;;13.45;100.00;100701.19;5094391;28;20289;-35
2022/09/15 02:41:12;;;;;;;;;;;;;;;13.43;100.00;100697.94;5095662;28;19951;-35
2022/09/15 02:43:48;;;;;;;;;;;;;;;13.40;100.00;100704.66;5095631;28;20324;-35
2022/09/15 02:46:14;;;;;;;;;;;;;;;13.38;100.00;100708.72;5095596;28;19912;-35
2022/09/15 02:48:39;;;;;;;;;;;;;;;13.37;100.00;100701.63;5095805;28;19923;-35
2022/09/15 02:51:05;;;;;;;;;;;;;;;13.37;100.00;100709.78;5094957;28;19912;-35
2022/09/15 02:53:30;;;;;;;;;;;;;;;13.34;100.00;100710.31;5095459;28;20002;-35
2022/09/15 02:55:56;;;;;;;;;;;;;;;13.33;100.00;100704.06;5094794;28;19964;-35
2022/09/15 02:58:22;;;;;;;;;;;;;;;13.32;100.00;100707.84;5095425;28;20306;-35
2022/09/15 03:00:48;;;;;;;;;;;;;;;13.31;100.00;100706.19;5094811;28;20061;-35
2022/09/15 03:03:14;;;;;;;;;;;;;;;13.30;100.00;100695.59;5094722;28;19912;-35
2022/09/15 03:05:39;;;;;;;;;;;;;;;13.30;100.00;100703.72;5095502;28;19954;-35
2022/09/15 03:08:04;;;;;;;;;;;;;;;13.29;100.00;100704.81;5095074;28;20415;-35
2022/09/15 03:10:31;;;;;;;;;;;;;;;13.28;100.00;100705.88;5095318;28;20006;-35
2022/09/15 03:12:56;;;;;;;;;;;;;;;13.28;100.00;100705.88;5094330;28;20002;-35
2022/09/15 03:15:23;;;;;;;;;;;;;;;13.30;100.00;100709.97;5093303;28;20030;-35
2022/09/15 03:17:48;;;;;;;;;;;;;;;13.32;100.00;100712.44;5094814;28;19912;-34
2022/09/15 03:20:18;;;;;;;;;;;;;;;13.33;100.00;100714.09;5094666;28;19918;-34
2022/09/15 03:22:43;;;;;;;;;;;;;;;13.37;100.00;100731.50;5094897;28;19919;-35
2022/09/15 03:25:09;;;;;;;;;;;;;;;13.39;100.00;100729.38;5094656;28;20002;-35
2022/09/15 03:27:35;;;;;;;;;;;;;;;13.42;100.00;100730.75;5095078;28;19957;-34
2022/09/15 03:30:00;;;;;;;;;;;;;;;13.44;100.00;100734.88;5094174;28;19921;-34
2022/09/15 03:32:25;;;;;;;;;;;;;;;13.46;100.00;100735.44;5095080;28;20010;-35
2022/09/15 03:34:51;;;;;;;;;;;;;;;13.50;100.00;100744.72;5093082;28;20355;-35
2022/09/15 03:37:17;;;;;;;;;;;;;;;13.52;100.00;100745.31;5094456;28;19912;-35
2022/09/15 03:39:42;;;;;;;;;;;;;;;13.56;100.00;100745.59;5094394;28;19912;-35
2022/09/15 03:42:07;;;;;;;;;;;;;;;13.58;100.00;100746.19;5094317;28;19912;-36
2022/09/15 03:44:34;;;;;;;;;;;;;;;13.61;100.00;100751.09;5094046;28;19969;-35
2022/09/15 03:46:59;;;;;;;;;;;;;;;13.62;100.00;100756.28;5094288;28;19963;-35
2022/09/15 03:49:24;;;;;;;;;;;;;;;13.62;100.00;100745.44;5094177;28;20433;-35
2022/09/15 03:51:50;;;;;;;;;;;;;;;13.65;100.00;100752.22;5094207;28;20409;-35
2022/09/15 03:54:15;;;;;;;;;;;;;;;13.66;100.00;100759.31;5094630;28;19959;-35
2022/09/15 03:56:41;;;;;;;;;;;;;;;13.68;100.00;100756.34;5094253;28;19918;-35
2022/09/15 03:59:06;;;;;;;;;;;;;;;13.69;100.00;100750.66;5094025;28;20279;-35
2022/09/15 04:01:31;;;;;;;;;;;;;;;13.70;100.00;100754.19;5094183;28;19912;-35
2022/09/15 04:03:57;;;;;;;;;;;;;;;13.69;100.00;100742.50;5093952;28;20236;-35
2022/09/15 04:06:22;;;;;;;;;;;;;;;13.71;100.00;100739.53;5094690;28;19912;-35
2022/09/15 04:08:48;;;;;;;;;;;;;;;13.69;100.00;100739.78;5093552;28;20006;-35
2022/09/15 04:11:14;;;;;;;;;;;;;;;13.68;100.00;100734.63;5094178;28;19912;-35
2022/09/15 04:13:40;;;;;;;;;;;;;;;13.68;100.00;100731.91;5094269;28;19927;-35
2022/09/15 04:16:08;;;;;;;;;;;;;;;13.69;100.00;100747.13;5093608;28;19919;-35
2022/09/15 04:18:34;;;;;;;;;;;;;;;13.70;100.00;100737.88;5094103;28;20048;-35
2022/09/15 04:21:01;;;;;;;;;;;;;;;13.70;100.00;100738.72;5093890;28;20002;-35
2022/09/15 04:23:26;;;;;;;;;;;;;;;13.70;100.00;100736.00;5093383;28;19923;-35
2022/09/15 04:25:59;;;;;;;;;;;;;;;13.71;100.00;100742.25;5093887;28;19912;-35
2022/09/15 04:28:25;;;;;;;;;;;;;;;13.70;100.00;100729.75;5093623;28;19912;-35
2022/09/15 04:30:51;;;;;;;;;;;;;;;13.71;100.00;100734.91;5093619;28;19912;-35
2022/09/15 04:33:16;;;;;;;;;;;;;;;13.71;100.00;100736.81;5093765;28;20001;-35
2022/09/15 04:35:41;;;;;;;;;;;;;;;13.71;100.00;100743.06;5093173;28;19951;-35
2022/09/15 04:38:06;;;;;;;;;;;;;;;13.72;100.00;100738.47;5093778;28;19973;-35
2022/09/15 04:40:32;;;;;;;;;;;;;;;13.71;100.00;100739.53;5093727;28;20301;-35
2022/09/15 04:42:58;;;;;;;;;;;;;;;13.71;100.00;100739.53;5093926;28;20356;-35
2022/09/15 04:45:23;;;;;;;;;;;;;;;13.71;100.00;100731.38;5093030;28;19961;-35
2022/09/15 04:47:50;;;;;;;;;;;;;;;13.69;100.00;100737.06;5093078;28;20282;-35
2022/09/15 04:50:15;;;;;;;;;;;;;;;13.70;100.00;100735.16;5093023;28;20010;-35
2022/09/15 04:52:40;;;;;;;;;;;;;;;13.68;100.00;100738.16;5093004;28;20015;-35
2022/09/15 04:55:06;;;;;;;;;;;;;;;13.68;100.00;100745.47;5093117;28;19919;-35
2022/09/15 04:57:32;;;;;;;;;;;;;;;13.68;100.00;100742.78;5094161;28;19916;-35
2022/09/15 04:59:57;;;;;;;;;;;;;;;13.64;100.00;100743.25;5093210;28;19912;-35
2022/09/15 05:02:22;;;;;;;;;;;;;;;13.64;100.00;100742.44;5093436;28;20364;-35
2022/09/15 05:04:48;;;;;;;;;;;;;;;13.60;100.00;100741.31;5091595;28;19912;-35
2022/09/15 05:07:13;;;;;;;;;;;;;;;13.55;100.00;100739.34;5093156;28;19912;-35
2022/09/15 05:09:38;;;;;;;;;;;;;;;13.52;100.00;100737.16;5093217;28;19927;-35
2022/09/15 05:12:03;;;;;;;;;;;;;;;13.53;100.00;100743.41;5093159;28;19912;-35
2022/09/15 05:14:30;;;;;;;;;;;;;;;13.51;100.00;100731.94;5093544;28;19920;-35
2022/09/15 05:16:55;;;;;;;;;;;;;;;13.48;100.00;100732.47;5092992;28;20291;-35
2022/09/15 05:19:20;;;;;;;;;;;;;;;13.46;100.00;100737.31;5092950;28;19912;-35
2022/09/15 05:21:46;;;;;;;;;;;;;;;13.45;100.00;100738.41;5093025;28;20348;-35
2022/09/15 05:24:11;;;;;;;;;;;;;;;13.44;100.00;100734.88;5091732;28;19912;-35
2022/09/15 05:26:36;;;;;;;;;;;;;;;13.46;100.00;100740.03;5093552;28;19912;-35
2022/09/15 05:29:01;;;;;;;;;;;;;;;13.47;100.00;100747.09;5092994;28;19958;-35
2022/09/15 05:31:29;;;;;;;;;;;;;;;13.46;100.00;100738.13;5093527;28;19912;-35
2022/09/15 05:33:54;;;;;;;;;;;;;;;13.46;100.00;100735.44;5093056;28;20390;-35
2022/09/15 05:36:23;;;;;;;;;;;;;;;13.45;100.00;100738.41;5094695;28;19912;-35
2022/09/15 05:38:48;;;;;;;;;;;;;;;13.46;100.00;100743.56;5096903;28;19919;-35
2022/09/15 05:41:15;;;;;;;;;;;;;;;13.48;100.00;100749.59;5096641;28;20348;-35
2022/09/15 05:43:40;;;;;;;;;;;;;;;13.49;100.00;100756.66;5096636;28;20312;-35
2022/09/15 05:46:06;;;;;;;;;;;;;;;13.51;100.00;100756.41;5096543;28;19957;-36
2022/09/15 05:48:31;;;;;;;;;;;;;;;13.53;100.00;100757.81;5096607;28;20078;-36
2022/09/15 05:50:57;;;;;;;;;;;;;;;13.57;100.00;100760.84;5095402;28;19962;-36
2022/09/15 05:53:22;;;;;;;;;;;;;;;13.59;100.00;100762.22;5096515;28;20419;-35
2022/09/15 05:55:48;;;;;;;;;;;;;;;13.60;100.00;100769.28;5096314;28;19912;-35
2022/09/15 05:58:13;;;;;;;;;;;;;;;13.64;100.00;100773.16;5096856;28;20406;-35
2022/09/15 06:00:40;;;;;;;;;;;;;;;13.67;100.00;100774.56;5096389;28;20010;-35
2022/09/15 06:03:06;;;;;;;;;;;;;;;13.70;100.00;100774.03;5096820;28;20435;-35
2022/09/15 06:05:31;;;;;;;;;;;;;;;13.71;100.00;100772.94;5096193;28;19912;-35
2022/09/15 06:07:56;;;;;;;;;;;;;;;13.74;100.00;100772.44;5096481;28;20323;-35
2022/09/15 06:10:23;;;;;;;;;;;;;;;13.79;100.00;100779.84;5096541;28;20002;-35
2022/09/15 06:12:52;;;;;;;;;;;;;;;13.81;100.00;100778.53;5096155;28;19912;-35
2022/09/15 06:15:17;;;;;;;;;;;;;;;13.85;100.00;100782.34;5095675;28;20509;-35
2022/09/15 06:17:42;;;;;;;;;;;;;;;13.88;100.00;100783.75;5096083;28;20011;-35
2022/09/15 06:20:08;;;;;;;;;;;;;;;13.89;100.00;100782.69;5096265;28;19919;-35
2022/09/15 06:22:33;;;;;;;;;;;;;;;13.91;100.00;100777.84;5096540;28;19912;-35
2022/09/15 06:24:58;;;;;;;;;;;;;;;13.94;100.00;100779.19;5095942;28;20004;-35
2022/09/15 06:27:24;;;;;;;;;;;;;;;13.95;100.00;100784.38;5096301;28;19912;-35
2022/09/15 06:29:49;;;;;;;;;;;;;;;13.98;100.00;100789.31;5096356;28;19916;-35
2022/09/15 06:32:14;;;;;;;;;;;;;;;14.02;100.00;100786.91;5096214;28;19919;-34
2022/09/15 06:34:39;;;;;;;;;;;;;;;14.06;100.00;100788.88;5095387;28;20325;-34
2022/09/15 06:37:04;;;;;;;;;;;;;;;14.11;100.00;100805.25;5095595;28;20360;-35
2022/09/15 06:39:30;;;;;;;;;;;;;;;14.15;100.00;100806.38;5095791;28;19912;-35
2022/09/15 06:41:55;;;;;;;;;;;;;;;14.17;100.00;100806.94;5095627;28;20003;-35
2022/09/15 06:44:20;;;;;;;;;;;;;;;14.21;100.00;100809.16;5095455;28;19912;-35
2022/09/15 06:46:46;;;;;;;;;;;;;;;14.25;100.00;100810.25;5094438;28;19912;-35
2022/09/15 06:49:11;;;;;;;;;;;;;;;14.29;100.00;100816.81;5095224;28;19919;-35
2022/09/15 06:51:36;;;;;;;;;;;;;;;14.33;100.00;100807.09;5095700;28;19986;-34
2022/09/15 06:54:02;;;;;;;;;;;;;;;14.37;100.00;100822.63;5095315;28;20342;-34
2022/09/15 06:56:28;;;;;;;;;;;;;;;14.41;100.00;100817.50;5094928;28;19923;-34
2022/09/15 06:58:54;;;;;;;;;;;;;;;14.47;100.00;100816.47;5095240;28;19912;-35
2022/09/15 07:01:27;;;;;;;;;;;;;;;14.54;100.00;100817.13;5095037;28;19919;-36
2022/09/15 07:03:53;;;;;;;;;;;;;;;14.61;100.00;100827.81;5095302;28;19911;-36
2022/09/15 07:06:19;;;;;;;;;;;;;;;14.65;100.00;100832.47;5094704;28;19985;-36
2022/09/15 07:08:45;;;;;;;;;;;;;;;14.72;100.00;100832.25;5095073;28;20002;-36
2022/09/15 07:11:11;;;;;;;;;;;;;;;14.78;100.00;100833.09;5095390;28;20333;-36
2022/09/15 07:13:36;;;;;;;;;;;;;;;14.82;100.00;100835.06;5095228;28;19911;-36
2022/09/15 07:16:02;;;;;;;;;;;;;;;14.87;100.00;100837.81;5095055;28;19993;-36
2022/09/15 07:18:28;;;;;;;;;;;;;;;14.90;100.00;100831.06;5095165;28;19912;-35
2022/09/15 07:20:57;;;;;;;;;;;;;;;14.92;100.00;100834.31;5094756;28;20013;-35
2022/09/15 07:23:22;;;;;;;;;;;;;;;14.92;100.00;100837.03;5094854;28;20021;-35
2022/09/15 07:25:47;;;;;;;;;;;;;;;14.93;100.00;100835.97;5094864;28;20366;-35
2022/09/15 07:28:13;;;;;;;;;;;;;;;14.96;100.00;100831.91;5095083;28;19912;-35
2022/09/15 07:30:39;;;;;;;;;;;;;;;15.00;100.00;100847.47;5094400;28;20291;-35
2022/09/15 07:33:10;;;;;;;;;;;;;;;15.03;100.00;100846.09;5094704;28;19912;-35
2022/09/15 07:35:42;;;;;;;;;;;;;;;15.07;100.00;100853.50;5093944;28;19919;-35
2022/09/15 07:38:07;;;;;;;;;;;;;;;15.13;100.00;100849.75;5094638;28;20048;-35
2022/09/15 07:40:33;;;;;;;;;;;;;;;15.18;100.00;100847.06;5094388;28;19974;-35
2022/09/15 07:42:58;;;;;;;;;;;;;;;15.24;100.00;100853.38;5094290;28;19919;-35
2022/09/15 07:45:23;;;;;;;;;;;;;;;15.27;100.00;100855.53;5094217;28;19912;-35
2022/09/15 07:47:48;;;;;;;;;;;;;;;15.30;100.00;100854.22;5094635;28;19922;-35
2022/09/15 07:50:13;;;;;;;;;;;;;;;15.32;100.00;100862.94;5093846;28;19920;-35
2022/09/15 07:52:39;;;;;;;;;;;;;;;15.32;100.00;100860.22;5093918;28;19969;-35
2022/09/15 07:55:04;;;;;;;;;;;;;;;15.33;100.00;100862.69;5094385;28;20461;-35
2022/09/15 07:57:29;;;;;;;;;;;;;;;15.35;100.00;100860.53;5093979;28;19912;-35
2022/09/15 07:59:54;;;;;;;;;;;;;;;15.36;100.00;100861.34;5093459;28;19912;-35
2022/09/15 08:02:20;;;;;;;;;;;;;;;15.37;100.00;100862.97;5094443;28;19930;-35
2022/09/15 08:04:45;;;;;;;;;;;;;;;15.38;100.00;100862.72;5093928;28;19916;-35
2022/09/15 08:07:11;;;;;;;;;;;;;;;15.42;100.00;100876.63;5094427;28;19912;-35
2022/09/15 08:09:37;;;;;;;;;;;;;;;15.45;100.00;100879.66;5093973;28;19919;-35
2022/09/15 08:12:02;;;;;;;;;;;;;;;15.48;100.00;100875.59;5094166;28;19970;-35
2022/09/15 08:14:30;;;;;;;;;;;;;;;15.53;100.00;100875.63;5093981;28;19947;-35
2022/09/15 08:16:56;;;;;;;;;;;;;;;15.60;100.00;100878.13;5093959;28;19916;-35
2022/09/15 08:19:22;;;;;;;;;;;;;;;15.64;100.00;100871.91;5091941;28;20213;-35
2022/09/15 08:21:47;;;;;;;;;;;;;;;15.66;100.00;100877.94;5094251;28;19919;-35
2022/09/15 08:24:12;;;;;;;;;;;;;;;15.69;100.00;100871.94;5093877;28;19912;-35
2022/09/15 08:26:37;;;;;;;;;;;;;;;15.73;100.00;100876.88;5093565;28;19912;-35
2022/09/15 08:29:03;;;;;;;;;;;;;;;15.77;100.00;100883.44;5093458;28;20003;-35
2022/09/15 08:31:28;;;;;;;;;;;;;;;15.79;100.00;100879.34;5093811;28;20453;-35
2022/09/15 08:33:54;;;;;;;;;;;;;;;15.82;100.00;100886.19;5093559;28;19919;-35
2022/09/15 08:36:19;;;;;;;;;;;;;;;15.85;100.00;100885.66;5093472;28;19915;-35
2022/09/15 08:38:45;;;;;;;;;;;;;;;15.88;100.00;100894.13;5093573;28;19912;-35
2022/09/15 08:41:32;;;;;;;;;;;;;;;15.93;100.00;100888.69;5093153;28;19912;-35
2022/09/15 08:44:01;;;;;;;;;;;;;;;15.98;100.00;100890.63;5093992;28;19965;-35
2022/09/15 08:46:31;;;;;;;;;;;;;;;16.02;100.00;100897.19;5093592;28;19959;-35
2022/09/15 08:49:09;;;;;;;;;;;;;;;16.09;100.00;100896.94;5094215;28;19919;-35
2022/09/15 08:51:43;;;;;;;;;;;;;;;16.17;100.00;100899.16;5092983;28;20038;-35
2022/09/15 08:54:19;;;;;;;;;;;;;;;16.23;100.00;100898.91;5093602;28;19912;-36
2022/09/15 08:56:46;;;;;;;;;;;;;;;16.30;100.00;100908.75;5093276;28;19962;-35
2022/09/15 08:59:12;;;;;;;;;;;;;;;16.36;99.33;100915.88;5093744;28;19940;-35
2022/09/15 09:01:44;;;;;;;;;;;;;;;16.38;98.97;100922.69;5093317;28;20375;-35
2022/09/15 09:04:27;;;;;;;;;;;;;;;16.36;98.30;100915.88;5093475;28;19916;-35
2022/09/15 09:07:15;;;;;;;;;;;;;;;16.32;98.11;100920.22;5092839;28;19964;-35
2022/09/15 09:10:05;;;;;;;;;;;;;;;16.28;98.39;100928.13;5093603;28;19954;-35
2022/09/15 09:12:49;;;;;;;;;;;;;;;16.23;98.63;100933.56;5097144;28;19988;-35
2022/09/15 09:15:33;;;;;;;;;;;;;;;16.20;98.52;100931.34;5097007;28;19911;-35
2022/09/15 09:18:17;;;;;;;;;;;;;;;16.18;98.79;100923.44;5097277;28;19949;-34
2022/09/15 09:20:45;;;;;;;;;;;;;;;16.21;98.81;100933.03;5097371;28;19918;-35
2022/09/15 09:23:12;;;;;;;;;;;;;;;16.22;98.79;100931.94;5097503;28;19919;-35
2022/09/15 09:25:39;;;;;;;;;;;;;;;16.23;98.70;100933.56;5096929;28;19919;-35
2022/09/15 09:28:05;;;;;;;;;;;;;;;16.20;98.27;100934.94;5097637;28;19911;-34
2022/09/15 09:30:32;;;;;;;;;;;;;;;16.17;98.08;100935.44;5096923;28;19912;-35
2022/09/15 09:33:15;;;;;;;;;;;;;;;16.14;97.96;100935.97;5096833;28;19918;-35
2022/09/15 09:35:45;;;;;;;;;;;;;;;16.12;98.33;100938.16;5096677;28;20006;-35
2022/09/15 09:38:11;;;;;;;;;;;;;;;16.08;97.17;100939.75;5097004;28;19918;-36
2022/09/15 09:40:40;;;;;;;;;;;;;;;16.04;97.54;100946.00;5095726;28;19990;-36
2022/09/15 09:43:05;;;;;;;;;;;;;;;15.99;97.33;100941.34;5095496;28;19955;-36
2022/09/15 09:45:30;;;;;;;;;;;;;;;15.96;97.67;100937.25;5096821;28;20331;-36
2022/09/15 09:48:01;;;;;;;;;;;;;;;15.93;97.21;100950.59;5096570;28;19920;-36
2022/09/15 09:50:37;;;;;;;;;;;;;;;15.90;97.45;100942.94;5096393;28;19912;-34
2022/09/15 09:53:21;;;;;;;;;;;;;;;15.84;97.09;100946.72;5096354;28;20070;-36
2022/09/15 09:55:46;;;;;;;;;;;;;;;15.80;97.63;100951.06;5095925;28;20304;-36
2022/09/15 09:58:16;;;;;;;;;;;;;;;15.78;97.31;100947.78;5096408;28;19958;-36
2022/09/15 10:00:41;;;;;;;;;;;;;;;15.78;97.78;100950.50;5096006;28;19958;-36
2022/09/15 10:03:15;;;;;;;;;;;;;;;15.78;97.81;100945.88;5096485;28;19916;-36
2022/09/15 10:05:41;;;;;;;;;;;;;;;15.82;97.42;100940.72;5096227;28;19951;-36
2022/09/15 10:08:14;;;;;;;;;;;;;;;15.87;97.94;100943.47;5096409;28;19912;-36
2022/09/15 10:10:48;;;;;;;;;;;;;;;15.95;97.92;100945.69;5095709;28;19920;-36
2022/09/15 10:13:13;;;;;;;;;;;;;;;16.04;97.91;100938.66;5095041;28;20349;-36
2022/09/15 10:15:39;;;;;;;;;;;;;;;16.15;97.62;100934.06;5094412;28;19916;-35
2022/09/15 10:18:04;;;;;;;;;;;;;;;16.22;97.44;100930.00;5094806;28;19919;-35
2022/09/15 10:20:32;;;;;;;;;;;;;;;16.31;97.68;100940.44;5095252;28;19912;-35
2022/09/15 10:23:01;;;;;;;;;;;;;;;16.36;97.43;100938.53;5094507;28;19958;-35
2022/09/15 10:25:28;;;;;;;;;;;;;;;16.41;97.35;100941.28;5094652;28;19912;-35
2022/09/15 10:28:12;;;;;;;;;;;;;;;16.46;97.43;100935.84;5094760;28;19947;-35
2022/09/15 10:30:38;;;;;;;;;;;;;;;16.52;97.12;100928.47;5094599;28;19919;-35
2022/09/15 10:33:23;;;;;;;;;;;;;;;16.55;97.29;100944.34;5094558;28;19912;-35
2022/09/15 10:35:49;;;;;;;;;;;;;;;16.50;96.61;100947.03;5094455;28;19912;-35
2022/09/15 10:38:18;;;;;;;;;;;;;;;16.35;94.15;100956.00;5095081;28;20018;-35
2022/09/15 10:40:53;;;;;;;;;;;;;;;16.15;92.30;100958.59;5094982;28;19912;-35
2022/09/15 10:43:21;;;;;;;;;;;;;;;15.93;91.19;100964.22;5094451;28;20002;-35
2022/09/15 10:45:54;;;;;;;;;;;;;;;15.77;92.36;100965.22;5094249;28;19922;-35
2022/09/15 10:48:42;;;;;;;;;;;;;;;15.63;93.71;100973.00;5094786;28;19931;-35
2022/09/15 10:51:07;;;;;;;;;;;;;;;15.53;93.96;100971.03;5094239;28;19912;-35
2022/09/15 10:53:35;;;;;;;;;;;;;;;15.49;94.59;100967.16;5094452;28;20304;-35
2022/09/15 10:56:03;;;;;;;;;;;;;;;15.47;94.43;100955.72;5094091;28;19973;-35
2022/09/15 10:58:39;;;;;;;;;;;;;;;15.47;94.84;100961.16;5094382;28;19988;-35
2022/09/15 11:01:04;;;;;;;;;;;;;;;15.46;95.28;100954.06;5094207;28;19947;-35
2022/09/15 11:03:39;;;;;;;;;;;;;;;15.48;95.45;100946.47;5094079;28;20375;-35
2022/09/15 11:06:14;;;;;;;;;;;;;;;15.53;94.90;100960.13;5093997;28;19913;-35
2022/09/15 11:08:40;;;;;;;;;;;;;;;15.60;94.87;100960.69;5056812;28;1066946;-35
2022/09/15 11:11:24;;;;;;;;;;;;;;;15.69;94.54;100952.91;5094656;28;19923;-35
2022/09/15 11:14:10;;;;;;;;;;;;;;;15.81;94.79;100960.88;5095357;28;20312;-35
2022/09/15 11:16:39;;;;;;;;;;;;;;;15.95;94.85;100951.97;5095256;28;19911;-35
2022/09/15 11:19:23;;;;;;;;;;;;;;;16.13;94.59;100937.06;5094758;28;19976;-35
2022/09/15 11:21:54;;;;;;;;;;;;;;;16.32;94.50;100939.34;5094368;28;19912;-35
2022/09/15 11:24:34;;;;;;;;;;;;;;;16.51;93.69;100948.69;5094683;28;19912;-35
2022/09/15 11:27:06;;;;;;;;;;;;;;;16.87;94.42;100935.97;5095413;28;19970;-35
2022/09/15 11:29:52;;;;;;;;;;;;;;;17.31;92.05;100934.63;5095102;28;20443;-35
2022/09/15 11:32:20;;;;;;;;;;;;;;;17.71;91.92;100939.22;5072193;28;19920;-35
2022/09/15 11:34:57;;;;;;;;;;;;;;;17.82;84.25;100940.09;5071379;28;20469;-34
2022/09/15 11:37:30;;;;;;;;;;;;;;;17.73;86.25;100945.28;5071778;28;20027;-34
2022/09/15 11:39:59;;;;;;;;;;;;;;;17.72;87.71;100941.72;5072342;28;19916;-34
2022/09/15 11:42:37;;;;;;;;;;;;;;;17.82;88.59;100949.13;5072265;28;20007;-34
2022/09/15 11:45:05;;;;;;;;;;;;;;;17.92;87.71;100946.34;5071672;28;19959;-35
2022/09/15 11:47:30;;;;;;;;;;;;;;;18.09;87.55;100946.00;5071647;28;19912;-34
2022/09/15 11:49:59;;;;;;;;;;;;;;;18.22;86.38;100941.88;5072216;28;19920;-35
2022/09/15 11:52:43;;;;;;;;;;;;;;;18.25;87.01;100953.09;5071781;28;19916;-35
2022/09/15 11:55:19;;;;;;;;;;;;;;;18.32;83.21;100941.03;5071846;28;19913;-35
2022/09/15 11:57:51;;;;;;;;;;;;;;;18.51;84.73;100944.75;5072016;28;19949;-35
2022/09/15 12:00:17;;;;;;;;;;;;;;;18.64;82.70;100943.31;5071917;28;19912;-35
2022/09/15 12:02:50;;;;;;;;;;;;;;;18.60;74.47;100940.34;5071441;28;20292;-35
2022/09/15 12:05:16;;;;;;;;;;;;;;;18.67;78.31;100938.09;5071525;28;19913;-35
2022/09/15 12:07:50;;;;;;;;;;;;;;;18.77;78.61;100929.03;5071349;28;19913;-36
2022/09/15 12:10:29;;;;;;;;;;;;;;;18.82;80.21;100930.91;5090963;28;19916;-36
2022/09/15 12:12:55;;;;;;;;;;;;;;;18.75;71.80;100932.06;5093889;28;19916;-36
2022/09/15 12:15:26;;;;;;;;;;;;;;;18.78;76.46;100926.00;5093747;28;19912;-36
2022/09/15 12:17:51;;;;;;;;;;;;;;;18.69;75.90;100926.88;5093844;28;19912;-36
2022/09/15 12:20:23;;;;;;;;;;;;;;;18.69;77.30;100921.41;5093517;28;19912;-36
2022/09/15 12:22:54;;;;;;;;;;;;;;;18.59;73.34;100922.25;5094272;28;20367;-36
2022/09/15 12:25:25;;;;;;;;;;;;;;;18.84;76.29;100917.75;5093627;28;20379;-36
2022/09/15 12:28:09;;;;;;;;;;;;;;;18.91;76.61;100916.34;5093407;28;19940;-36
2022/09/15 12:30:41;;;;;;;;;;;;;;;19.00;75.49;100916.56;5093566;28;19912;-36
2022/09/15 12:33:42;;;;;;;;;;;;;;;19.11;77.12;100917.28;5094434;28;19912;-36
2022/09/15 12:36:26;;;;;;;;;;;;;;;19.15;73.52;100910.94;5071497;28;20060;-36
2022/09/15 12:38:51;;;;;;;;;;;;;;;19.33;75.57;100919.59;5071486;28;19969;-36